sensor_id;sensor_type;location;lat;lon;timestamp;P1;durP1;ratioP1;P2;durP2;ratioP2
54683;SDS011;40582;53.100;6.686;2023-01-19T00:01:54;15.23;;;8.80;;
54683;SDS011;40582;53.100;6.686;2023-01-19T00:04:20;13.70;;;9.18;;
54683;SDS011;40582;53.100;6.686;2023-01-19T00:06:46;15.18;;;8.82;;
54683;SDS011;40582;53.100;6.686;2023-01-19T00:09:11;13.63;;;8.50;;
54683;SDS011;40582;53.100;6.686;2023-01-19T00:11:37;14.02;;;8.85;;
54683;SDS011;40582;53.100;6.686;2023-01-19T00:14:03;14.70;;;8.10;;
54683;SDS011;40582;53.100;6.686;2023-01-19T00:16:29;11.15;;;8.07;;
54683;SDS011;40582;53.100;6.686;2023-01-19T00:18:54;13.32;;;8.75;;
54683;SDS011;40582;53.100;6.686;2023-01-19T00:21:20;12.05;;;8.50;;
54683;SDS011;40582;53.100;6.686;2023-01-19T00:23:46;19.33;;;8.93;;
54683;SDS011;40582;53.100;6.686;2023-01-19T00:26:15;19.05;;;8.32;;
54683;SDS011;40582;53.100;6.686;2023-01-19T00:28:42;14.18;;;7.70;;
54683;SDS011;40582;53.100;6.686;2023-01-19T00:31:08;18.58;;;8.07;;
54683;SDS011;40582;53.100;6.686;2023-01-19T00:33:49;15.82;;;8.00;;
54683;SDS011;40582;53.100;6.686;2023-01-19T00:36:16;14.77;;;7.60;;
54683;SDS011;40582;53.100;6.686;2023-01-19T00:38:43;15.10;;;7.13;;
54683;SDS011;40582;53.100;6.686;2023-01-19T00:41:08;11.60;;;6.82;;
54683;SDS011;40582;53.100;6.686;2023-01-19T00:43:34;13.45;;;6.22;;
54683;SDS011;40582;53.100;6.686;2023-01-19T00:46:00;12.07;;;5.65;;
54683;SDS011;40582;53.100;6.686;2023-01-19T00:48:25;13.40;;;5.82;;
54683;SDS011;40582;53.100;6.686;2023-01-19T00:50:51;11.80;;;6.07;;
54683;SDS011;40582;53.100;6.686;2023-01-19T00:53:17;12.10;;;5.50;;
54683;SDS011;40582;53.100;6.686;2023-01-19T00:55:42;11.90;;;5.78;;
54683;SDS011;40582;53.100;6.686;2023-01-19T00:58:08;10.93;;;5.10;;
54683;SDS011;40582;53.100;6.686;2023-01-19T01:00:34;10.43;;;5.40;;
54683;SDS011;40582;53.100;6.686;2023-01-19T01:02:59;9.18;;;5.00;;
54683;SDS011;40582;53.100;6.686;2023-01-19T01:05:25;9.45;;;5.40;;
54683;SDS011;40582;53.100;6.686;2023-01-19T01:07:51;8.88;;;4.60;;
54683;SDS011;40582;53.100;6.686;2023-01-19T01:12:47;11.10;;;4.65;;
54683;SDS011;40582;53.100;6.686;2023-01-19T01:15:14;7.63;;;4.32;;
54683;SDS011;40582;53.100;6.686;2023-01-19T01:17:40;5.85;;;3.38;;
54683;SDS011;40582;53.100;6.686;2023-01-19T01:22:43;6.03;;;2.95;;
54683;SDS011;40582;53.100;6.686;2023-01-19T01:25:16;4.93;;;3.13;;
54683;SDS011;40582;53.100;6.686;2023-01-19T01:27:43;4.78;;;3.80;;
54683;SDS011;40582;53.100;6.686;2023-01-19T01:30:10;6.80;;;3.85;;
54683;SDS011;40582;53.100;6.686;2023-01-19T01:32:37;4.97;;;3.97;;
54683;SDS011;40582;53.100;6.686;2023-01-19T01:35:03;5.45;;;4.10;;
54683;SDS011;40582;53.100;6.686;2023-01-19T01:37:29;4.20;;;3.67;;
54683;SDS011;40582;53.100;6.686;2023-01-19T01:39:55;5.47;;;4.00;;
54683;SDS011;40582;53.100;6.686;2023-01-19T01:42:24;11.40;;;4.18;;
54683;SDS011;40582;53.100;6.686;2023-01-19T01:44:56;6.47;;;4.20;;
54683;SDS011;40582;53.100;6.686;2023-01-19T01:47:42;4.40;;;4.00;;
54683;SDS011;40582;53.100;6.686;2023-01-19T01:50:15;4.55;;;3.88;;
54683;SDS011;40582;53.100;6.686;2023-01-19T01:52:51;4.50;;;4.10;;
54683;SDS011;40582;53.100;6.686;2023-01-19T01:55:23;7.03;;;4.90;;
54683;SDS011;40582;53.100;6.686;2023-01-19T01:57:52;5.95;;;4.93;;
54683;SDS011;40582;53.100;6.686;2023-01-19T02:00:21;5.72;;;4.72;;
54683;SDS011;40582;53.100;6.686;2023-01-19T02:02:48;6.40;;;4.68;;
54683;SDS011;40582;53.100;6.686;2023-01-19T02:08:02;7.72;;;5.28;;
54683;SDS011;40582;53.100;6.686;2023-01-19T02:10:52;6.80;;;5.57;;
54683;SDS011;40582;53.100;6.686;2023-01-19T02:13:38;5.97;;;5.47;;
54683;SDS011;40582;53.100;6.686;2023-01-19T02:16:09;7.55;;;5.80;;
54683;SDS011;40582;53.100;6.686;2023-01-19T02:18:37;8.88;;;5.75;;
54683;SDS011;40582;53.100;6.686;2023-01-19T02:23:56;9.77;;;6.30;;
54683;SDS011;40582;53.100;6.686;2023-01-19T02:26:43;8.75;;;6.78;;
54683;SDS011;40582;53.100;6.686;2023-01-19T02:29:12;13.45;;;7.90;;
54683;SDS011;40582;53.100;6.686;2023-01-19T02:31:40;11.35;;;7.50;;
54683;SDS011;40582;53.100;6.686;2023-01-19T02:34:10;9.13;;;7.45;;
54683;SDS011;40582;53.100;6.686;2023-01-19T02:36:47;10.55;;;7.35;;
54683;SDS011;40582;53.100;6.686;2023-01-19T02:39:33;12.60;;;7.85;;
54683;SDS011;40582;53.100;6.686;2023-01-19T02:42:04;12.27;;;7.68;;
54683;SDS011;40582;53.100;6.686;2023-01-19T02:44:33;10.90;;;7.75;;
54683;SDS011;40582;53.100;6.686;2023-01-19T02:47:01;9.75;;;6.93;;
54683;SDS011;40582;53.100;6.686;2023-01-19T02:49:28;17.90;;;8.27;;
54683;SDS011;40582;53.100;6.686;2023-01-19T02:51:54;11.50;;;8.18;;
54683;SDS011;40582;53.100;6.686;2023-01-19T03:04:39;11.73;;;8.73;;
54683;SDS011;40582;53.100;6.686;2023-01-19T03:07:20;13.98;;;10.20;;
54683;SDS011;40582;53.100;6.686;2023-01-19T03:10:39;14.18;;;9.43;;
54683;SDS011;40582;53.100;6.686;2023-01-19T03:12:42;15.32;;;10.30;;
54683;SDS011;40582;53.100;6.686;2023-01-19T03:15:34;13.05;;;10.98;;
54683;SDS011;40582;53.100;6.686;2023-01-19T03:18:24;14.68;;;11.63;;
54683;SDS011;40582;53.100;6.686;2023-01-19T03:20:54;15.70;;;11.40;;
54683;SDS011;40582;53.100;6.686;2023-01-19T03:23:23;14.38;;;11.52;;
54683;SDS011;40582;53.100;6.686;2023-01-19T03:25:52;17.67;;;11.23;;
54683;SDS011;40582;53.100;6.686;2023-01-19T03:28:21;13.52;;;11.43;;
54683;SDS011;40582;53.100;6.686;2023-01-19T03:30:57;17.40;;;11.43;;
54683;SDS011;40582;53.100;6.686;2023-01-19T03:33:29;13.75;;;12.23;;
54683;SDS011;40582;53.100;6.686;2023-01-19T03:35:59;12.27;;;10.80;;
54683;SDS011;40582;53.100;6.686;2023-01-19T03:38:34;18.35;;;11.35;;
54683;SDS011;40582;53.100;6.686;2023-01-19T03:41:03;13.93;;;10.52;;
54683;SDS011;40582;53.100;6.686;2023-01-19T03:43:32;12.05;;;10.10;;
54683;SDS011;40582;53.100;6.686;2023-01-19T03:46:02;13.80;;;10.27;;
54683;SDS011;40582;53.100;6.686;2023-01-19T03:48:30;15.25;;;10.82;;
54683;SDS011;40582;53.100;6.686;2023-01-19T03:50:57;13.63;;;10.30;;
54683;SDS011;40582;53.100;6.686;2023-01-19T03:53:26;14.43;;;10.68;;
54683;SDS011;40582;53.100;6.686;2023-01-19T03:55:52;14.38;;;9.90;;
54683;SDS011;40582;53.100;6.686;2023-01-19T03:58:19;12.27;;;10.02;;
54683;SDS011;40582;53.100;6.686;2023-01-19T04:00:46;14.63;;;10.30;;
54683;SDS011;40582;53.100;6.686;2023-01-19T04:03:13;10.90;;;9.30;;
54683;SDS011;40582;53.100;6.686;2023-01-19T04:05:39;13.00;;;9.85;;
54683;SDS011;40582;53.100;6.686;2023-01-19T04:08:05;15.27;;;9.88;;
54683;SDS011;40582;53.100;6.686;2023-01-19T04:10:31;12.15;;;10.15;;
54683;SDS011;40582;53.100;6.686;2023-01-19T04:12:57;16.15;;;10.27;;
54683;SDS011;40582;53.100;6.686;2023-01-19T04:15:24;11.07;;;9.50;;
54683;SDS011;40582;53.100;6.686;2023-01-19T04:17:50;12.15;;;9.30;;
54683;SDS011;40582;53.100;6.686;2023-01-19T04:20:17;13.40;;;9.07;;
54683;SDS011;40582;53.100;6.686;2023-01-19T04:22:43;12.93;;;9.35;;
54683;SDS011;40582;53.100;6.686;2023-01-19T04:25:08;13.45;;;9.65;;
54683;SDS011;40582;53.100;6.686;2023-01-19T04:27:35;16.65;;;9.93;;
54683;SDS011;40582;53.100;6.686;2023-01-19T04:30:01;9.85;;;8.85;;
54683;SDS011;40582;53.100;6.686;2023-01-19T04:32:28;13.18;;;9.18;;
54683;SDS011;40582;53.100;6.686;2023-01-19T04:34:54;10.85;;;9.30;;
54683;SDS011;40582;53.100;6.686;2023-01-19T04:37:20;10.98;;;8.40;;
54683;SDS011;40582;53.100;6.686;2023-01-19T04:39:46;10.95;;;8.52;;
54683;SDS011;40582;53.100;6.686;2023-01-19T04:42:12;13.38;;;9.35;;
54683;SDS011;40582;53.100;6.686;2023-01-19T04:44:37;17.38;;;9.25;;
54683;SDS011;40582;53.100;6.686;2023-01-19T04:47:03;9.95;;;8.57;;
54683;SDS011;40582;53.100;6.686;2023-01-19T04:49:29;11.45;;;8.48;;
54683;SDS011;40582;53.100;6.686;2023-01-19T04:51:54;11.07;;;9.25;;
54683;SDS011;40582;53.100;6.686;2023-01-19T04:54:20;10.98;;;8.65;;
54683;SDS011;40582;53.100;6.686;2023-01-19T04:56:46;14.60;;;8.65;;
54683;SDS011;40582;53.100;6.686;2023-01-19T04:59:12;11.00;;;8.80;;
54683;SDS011;40582;53.100;6.686;2023-01-19T05:01:38;11.73;;;8.77;;
54683;SDS011;40582;53.100;6.686;2023-01-19T05:04:04;15.43;;;8.40;;
54683;SDS011;40582;53.100;6.686;2023-01-19T05:06:32;10.43;;;7.80;;
54683;SDS011;40582;53.100;6.686;2023-01-19T05:08:58;10.85;;;8.40;;
54683;SDS011;40582;53.100;6.686;2023-01-19T05:11:23;12.00;;;7.85;;
54683;SDS011;40582;53.100;6.686;2023-01-19T05:13:49;12.85;;;7.70;;
54683;SDS011;40582;53.100;6.686;2023-01-19T05:16:15;11.25;;;7.90;;
54683;SDS011;40582;53.100;6.686;2023-01-19T05:18:40;14.07;;;8.13;;
54683;SDS011;40582;53.100;6.686;2023-01-19T05:21:06;15.85;;;9.10;;
54683;SDS011;40582;53.100;6.686;2023-01-19T05:23:32;12.88;;;7.97;;
54683;SDS011;40582;53.100;6.686;2023-01-19T05:25:58;11.93;;;7.47;;
54683;SDS011;40582;53.100;6.686;2023-01-19T05:28:26;11.77;;;7.78;;
54683;SDS011;40582;53.100;6.686;2023-01-19T05:30:56;12.90;;;7.90;;
54683;SDS011;40582;53.100;6.686;2023-01-19T05:33:22;15.15;;;7.32;;
54683;SDS011;40582;53.100;6.686;2023-01-19T05:35:48;10.57;;;7.28;;
54683;SDS011;40582;53.100;6.686;2023-01-19T05:38:15;11.75;;;6.75;;
54683;SDS011;40582;53.100;6.686;2023-01-19T05:40:41;8.88;;;5.95;;
54683;SDS011;40582;53.100;6.686;2023-01-19T05:43:07;11.00;;;6.13;;
54683;SDS011;40582;53.100;6.686;2023-01-19T05:45:32;15.15;;;5.32;;
54683;SDS011;40582;53.100;6.686;2023-01-19T05:47:58;12.15;;;5.72;;
54683;SDS011;40582;53.100;6.686;2023-01-19T05:50:24;10.80;;;5.38;;
54683;SDS011;40582;53.100;6.686;2023-01-19T05:52:50;12.18;;;5.32;;
54683;SDS011;40582;53.100;6.686;2023-01-19T05:55:17;12.55;;;5.07;;
54683;SDS011;40582;53.100;6.686;2023-01-19T05:57:44;8.70;;;5.15;;
54683;SDS011;40582;53.100;6.686;2023-01-19T06:00:10;14.93;;;5.25;;
54683;SDS011;40582;53.100;6.686;2023-01-19T06:02:36;13.95;;;5.22;;
54683;SDS011;40582;53.100;6.686;2023-01-19T06:05:01;14.27;;;5.03;;
54683;SDS011;40582;53.100;6.686;2023-01-19T06:07:28;13.05;;;3.60;;
54683;SDS011;40582;53.100;6.686;2023-01-19T06:09:56;20.35;;;4.45;;
54683;SDS011;40582;53.100;6.686;2023-01-19T06:12:22;11.98;;;4.03;;
54683;SDS011;40582;53.100;6.686;2023-01-19T06:14:48;5.80;;;3.42;;
54683;SDS011;40582;53.100;6.686;2023-01-19T06:17:14;10.70;;;4.15;;
54683;SDS011;40582;53.100;6.686;2023-01-19T06:19:39;12.40;;;2.90;;
54683;SDS011;40582;53.100;6.686;2023-01-19T06:22:05;9.98;;;2.72;;
54683;SDS011;40582;53.100;6.686;2023-01-19T06:24:32;20.85;;;2.60;;
54683;SDS011;40582;53.100;6.686;2023-01-19T06:26:57;9.65;;;2.33;;
54683;SDS011;40582;53.100;6.686;2023-01-19T06:29:24;7.60;;;1.90;;
54683;SDS011;40582;53.100;6.686;2023-01-19T06:31:50;8.48;;;2.00;;
54683;SDS011;40582;53.100;6.686;2023-01-19T06:34:16;7.78;;;1.58;;
54683;SDS011;40582;53.100;6.686;2023-01-19T06:36:43;8.00;;;2.58;;
54683;SDS011;40582;53.100;6.686;2023-01-19T06:39:09;7.53;;;1.55;;
54683;SDS011;40582;53.100;6.686;2023-01-19T06:41:35;7.25;;;1.70;;
54683;SDS011;40582;53.100;6.686;2023-01-19T06:44:01;13.27;;;1.88;;
54683;SDS011;40582;53.100;6.686;2023-01-19T06:46:27;12.10;;;2.38;;
54683;SDS011;40582;53.100;6.686;2023-01-19T06:48:53;12.63;;;2.03;;
54683;SDS011;40582;53.100;6.686;2023-01-19T06:51:20;12.10;;;1.90;;
54683;SDS011;40582;53.100;6.686;2023-01-19T06:53:46;11.45;;;2.15;;
54683;SDS011;40582;53.100;6.686;2023-01-19T06:56:12;12.25;;;1.85;;
54683;SDS011;40582;53.100;6.686;2023-01-19T06:58:37;5.82;;;1.75;;
54683;SDS011;40582;53.100;6.686;2023-01-19T07:01:04;10.70;;;2.20;;
54683;SDS011;40582;53.100;6.686;2023-01-19T07:03:30;12.32;;;2.15;;
54683;SDS011;40582;53.100;6.686;2023-01-19T07:05:56;10.50;;;2.08;;
54683;SDS011;40582;53.100;6.686;2023-01-19T07:08:24;7.53;;;1.90;;
54683;SDS011;40582;53.100;6.686;2023-01-19T07:10:50;7.55;;;2.28;;
54683;SDS011;40582;53.100;6.686;2023-01-19T07:13:15;9.43;;;1.95;;
54683;SDS011;40582;53.100;6.686;2023-01-19T07:15:41;20.20;;;2.40;;
54683;SDS011;40582;53.100;6.686;2023-01-19T07:18:07;6.40;;;1.70;;
54683;SDS011;40582;53.100;6.686;2023-01-19T07:20:34;11.40;;;2.00;;
54683;SDS011;40582;53.100;6.686;2023-01-19T07:23:00;12.43;;;2.40;;
54683;SDS011;40582;53.100;6.686;2023-01-19T07:25:26;16.10;;;2.55;;
54683;SDS011;40582;53.100;6.686;2023-01-19T07:27:56;21.05;;;2.47;;
54683;SDS011;40582;53.100;6.686;2023-01-19T07:30:25;16.10;;;2.83;;
54683;SDS011;40582;53.100;6.686;2023-01-19T07:32:53;17.83;;;2.90;;
54683;SDS011;40582;53.100;6.686;2023-01-19T07:35:21;19.52;;;2.80;;
54683;SDS011;40582;53.100;6.686;2023-01-19T07:37:47;15.35;;;2.42;;
54683;SDS011;40582;53.100;6.686;2023-01-19T07:40:12;20.90;;;3.22;;
54683;SDS011;40582;53.100;6.686;2023-01-19T07:42:38;15.32;;;1.98;;
54683;SDS011;40582;53.100;6.686;2023-01-19T07:45:04;22.50;;;3.53;;
54683;SDS011;40582;53.100;6.686;2023-01-19T07:47:30;24.25;;;3.67;;
54683;SDS011;40582;53.100;6.686;2023-01-19T07:49:55;20.05;;;3.55;;
54683;SDS011;40582;53.100;6.686;2023-01-19T07:52:21;28.02;;;3.20;;
54683;SDS011;40582;53.100;6.686;2023-01-19T07:54:47;22.50;;;3.58;;
54683;SDS011;40582;53.100;6.686;2023-01-19T07:57:15;27.63;;;3.60;;
54683;SDS011;40582;53.100;6.686;2023-01-19T07:59:41;24.77;;;3.40;;
54683;SDS011;40582;53.100;6.686;2023-01-19T08:02:08;29.40;;;4.53;;
54683;SDS011;40582;53.100;6.686;2023-01-19T08:04:34;24.33;;;3.40;;
54683;SDS011;40582;53.100;6.686;2023-01-19T08:07:00;27.55;;;3.70;;
54683;SDS011;40582;53.100;6.686;2023-01-19T08:09:26;30.70;;;3.65;;
54683;SDS011;40582;53.100;6.686;2023-01-19T08:11:51;24.25;;;3.22;;
54683;SDS011;40582;53.100;6.686;2023-01-19T08:14:17;28.08;;;3.70;;
54683;SDS011;40582;53.100;6.686;2023-01-19T08:16:43;23.67;;;3.13;;
54683;SDS011;40582;53.100;6.686;2023-01-19T08:19:08;26.52;;;3.53;;
54683;SDS011;40582;53.100;6.686;2023-01-19T08:21:34;20.92;;;2.88;;
54683;SDS011;40582;53.100;6.686;2023-01-19T08:24:00;17.73;;;3.22;;
54683;SDS011;40582;53.100;6.686;2023-01-19T08:26:30;19.08;;;2.88;;
54683;SDS011;40582;53.100;6.686;2023-01-19T08:28:59;17.52;;;2.80;;
54683;SDS011;40582;53.100;6.686;2023-01-19T08:31:26;16.48;;;2.83;;
54683;SDS011;40582;53.100;6.686;2023-01-19T08:33:52;21.27;;;3.38;;
54683;SDS011;40582;53.100;6.686;2023-01-19T08:36:18;18.13;;;2.90;;
54683;SDS011;40582;53.100;6.686;2023-01-19T08:38:45;29.50;;;3.83;;
54683;SDS011;40582;53.100;6.686;2023-01-19T08:41:12;18.15;;;2.45;;
54683;SDS011;40582;53.100;6.686;2023-01-19T08:43:38;20.25;;;2.80;;
54683;SDS011;40582;53.100;6.686;2023-01-19T08:46:04;16.77;;;2.70;;
54683;SDS011;40582;53.100;6.686;2023-01-19T08:48:30;14.18;;;2.80;;
54683;SDS011;40582;53.100;6.686;2023-01-19T08:50:56;22.15;;;3.78;;
54683;SDS011;40582;53.100;6.686;2023-01-19T08:53:23;23.88;;;3.72;;
54683;SDS011;40582;53.100;6.686;2023-01-19T08:55:49;23.95;;;3.33;;
54683;SDS011;40582;53.100;6.686;2023-01-19T08:58:18;23.40;;;4.07;;
54683;SDS011;40582;53.100;6.686;2023-01-19T09:00:44;20.75;;;3.05;;
54683;SDS011;40582;53.100;6.686;2023-01-19T09:03:10;27.30;;;3.85;;
54683;SDS011;40582;53.100;6.686;2023-01-19T09:05:37;34.67;;;4.93;;
54683;SDS011;40582;53.100;6.686;2023-01-19T09:08:04;30.52;;;3.95;;
54683;SDS011;40582;53.100;6.686;2023-01-19T09:10:32;29.98;;;4.57;;
54683;SDS011;40582;53.100;6.686;2023-01-19T09:13:05;31.85;;;4.90;;
54683;SDS011;40582;53.100;6.686;2023-01-19T09:15:34;36.60;;;4.25;;
54683;SDS011;40582;53.100;6.686;2023-01-19T09:18:04;29.30;;;4.60;;
54683;SDS011;40582;53.100;6.686;2023-01-19T09:20:32;31.98;;;3.60;;
54683;SDS011;40582;53.100;6.686;2023-01-19T09:23:00;49.80;;;5.13;;
54683;SDS011;40582;53.100;6.686;2023-01-19T09:25:25;24.52;;;3.67;;
54683;SDS011;40582;53.100;6.686;2023-01-19T09:27:51;30.02;;;3.78;;
54683;SDS011;40582;53.100;6.686;2023-01-19T09:30:17;36.35;;;4.53;;
54683;SDS011;40582;53.100;6.686;2023-01-19T09:32:44;39.13;;;4.65;;
54683;SDS011;40582;53.100;6.686;2023-01-19T09:35:10;34.08;;;4.43;;
54683;SDS011;40582;53.100;6.686;2023-01-19T09:37:36;27.48;;;4.15;;
54683;SDS011;40582;53.100;6.686;2023-01-19T09:40:02;44.60;;;4.97;;
54683;SDS011;40582;53.100;6.686;2023-01-19T09:42:35;35.95;;;4.40;;
54683;SDS011;40582;53.100;6.686;2023-01-19T09:45:11;31.42;;;4.50;;
54683;SDS011;40582;53.100;6.686;2023-01-19T09:47:42;38.63;;;4.20;;
54683;SDS011;40582;53.100;6.686;2023-01-19T09:50:23;29.13;;;3.75;;
54683;SDS011;40582;53.100;6.686;2023-01-19T09:53:03;30.40;;;3.85;;
54683;SDS011;40582;53.100;6.686;2023-01-19T09:55:38;22.45;;;4.65;;
54683;SDS011;40582;53.100;6.686;2023-01-19T09:58:11;30.83;;;4.35;;
54683;SDS011;40582;53.100;6.686;2023-01-19T10:00:41;34.60;;;4.30;;
54683;SDS011;40582;53.100;6.686;2023-01-19T10:03:13;25.13;;;3.88;;
54683;SDS011;40582;53.100;6.686;2023-01-19T10:08:50;28.85;;;4.72;;
54683;SDS011;40582;53.100;6.686;2023-01-19T10:14:32;32.13;;;5.15;;
54683;SDS011;40582;53.100;6.686;2023-01-19T10:19:52;23.55;;;3.95;;
54683;SDS011;40582;53.100;6.686;2023-01-19T10:22:22;24.75;;;4.32;;
54683;SDS011;40582;53.100;6.686;2023-01-19T10:24:52;39.45;;;5.65;;
54683;SDS011;40582;53.100;6.686;2023-01-19T10:27:30;27.55;;;4.20;;
54683;SDS011;40582;53.100;6.686;2023-01-19T10:29:59;26.02;;;3.75;;
54683;SDS011;40582;53.100;6.686;2023-01-19T10:32:26;27.65;;;4.05;;
54683;SDS011;40582;53.100;6.686;2023-01-19T10:34:58;21.65;;;3.55;;
54683;SDS011;40582;53.100;6.686;2023-01-19T10:37:29;22.00;;;3.28;;
54683;SDS011;40582;53.100;6.686;2023-01-19T10:40:12;24.42;;;3.67;;
54683;SDS011;40582;53.100;6.686;2023-01-19T10:45:58;21.13;;;3.42;;
54683;SDS011;40582;53.100;6.686;2023-01-19T10:48:24;28.08;;;3.75;;
54683;SDS011;40582;53.100;6.686;2023-01-19T10:50:59;21.48;;;3.60;;
54683;SDS011;40582;53.100;6.686;2023-01-19T10:53:27;35.28;;;4.78;;
54683;SDS011;40582;53.100;6.686;2023-01-19T10:56:10;23.88;;;3.53;;
54683;SDS011;40582;53.100;6.686;2023-01-19T10:58:40;22.42;;;3.83;;
54683;SDS011;40582;53.100;6.686;2023-01-19T11:01:20;25.38;;;3.83;;
54683;SDS011;40582;53.100;6.686;2023-01-19T11:03:51;27.77;;;3.95;;
54683;SDS011;40582;53.100;6.686;2023-01-19T11:08:46;20.60;;;2.90;;
54683;SDS011;40582;53.100;6.686;2023-01-19T11:11:14;19.73;;;3.72;;
54683;SDS011;40582;53.100;6.686;2023-01-19T11:13:42;23.95;;;3.83;;
54683;SDS011;40582;53.100;6.686;2023-01-19T11:18:43;21.95;;;2.72;;
54683;SDS011;40582;53.100;6.686;2023-01-19T11:21:12;18.20;;;3.80;;
54683;SDS011;40582;53.100;6.686;2023-01-19T11:23:41;23.52;;;2.88;;
54683;SDS011;40582;53.100;6.686;2023-01-19T11:29:04;14.07;;;3.03;;
54683;SDS011;40582;53.100;6.686;2023-01-19T11:31:36;28.90;;;3.15;;
54683;SDS011;40582;53.100;6.686;2023-01-19T11:34:03;19.00;;;3.10;;
54683;SDS011;40582;53.100;6.686;2023-01-19T11:36:53;20.88;;;2.88;;
54683;SDS011;40582;53.100;6.686;2023-01-19T11:39:49;17.42;;;2.83;;
54683;SDS011;40582;53.100;6.686;2023-01-19T11:42:23;16.77;;;2.88;;
54683;SDS011;40582;53.100;6.686;2023-01-19T11:55:50;19.20;;;2.63;;
54683;SDS011;40582;53.100;6.686;2023-01-19T11:58:17;18.65;;;2.70;;
54683;SDS011;40582;53.100;6.686;2023-01-19T12:03:21;17.27;;;2.58;;
54683;SDS011;40582;53.100;6.686;2023-01-19T12:05:55;12.23;;;2.15;;
54683;SDS011;40582;53.100;6.686;2023-01-19T12:08:26;8.95;;;1.60;;
54683;SDS011;40582;53.100;6.686;2023-01-19T12:10:58;20.13;;;2.85;;
54683;SDS011;40582;53.100;6.686;2023-01-19T12:13:26;12.25;;;2.17;;
54683;SDS011;40582;53.100;6.686;2023-01-19T12:15:56;13.15;;;2.45;;
54683;SDS011;40582;53.100;6.686;2023-01-19T12:18:35;10.13;;;2.20;;
54683;SDS011;40582;53.100;6.686;2023-01-19T12:21:09;16.85;;;2.08;;
54683;SDS011;40582;53.100;6.686;2023-01-19T12:23:41;13.18;;;2.15;;
54683;SDS011;40582;53.100;6.686;2023-01-19T12:29:03;15.32;;;2.70;;
54683;SDS011;40582;53.100;6.686;2023-01-19T12:31:41;11.40;;;2.35;;
54683;SDS011;40582;53.100;6.686;2023-01-19T12:36:49;10.75;;;1.92;;
54683;SDS011;40582;53.100;6.686;2023-01-19T12:39:16;15.07;;;2.30;;
54683;SDS011;40582;53.100;6.686;2023-01-19T12:41:47;15.30;;;1.85;;
54683;SDS011;40582;53.100;6.686;2023-01-19T12:44:27;9.30;;;2.00;;
54683;SDS011;40582;53.100;6.686;2023-01-19T12:46:58;11.60;;;2.15;;
54683;SDS011;40582;53.100;6.686;2023-01-19T12:49:33;9.25;;;1.98;;
54683;SDS011;40582;53.100;6.686;2023-01-19T12:52:10;8.25;;;1.90;;
54683;SDS011;40582;53.100;6.686;2023-01-19T13:00:46;9.60;;;1.63;;
54683;SDS011;40582;53.100;6.686;2023-01-19T13:02:56;11.23;;;1.73;;
54683;SDS011;40582;53.100;6.686;2023-01-19T13:15:50;6.82;;;1.73;;
54683;SDS011;40582;53.100;6.686;2023-01-19T13:18:17;14.40;;;2.70;;
54683;SDS011;40582;53.100;6.686;2023-01-19T13:20:50;7.50;;;1.80;;
54683;SDS011;40582;53.100;6.686;2023-01-19T13:23:22;9.48;;;1.95;;
54683;SDS011;40582;53.100;6.686;2023-01-19T13:25:50;8.85;;;1.63;;
54683;SDS011;40582;53.100;6.686;2023-01-19T13:28:40;14.10;;;2.03;;
54683;SDS011;40582;53.100;6.686;2023-01-19T13:31:07;8.95;;;1.90;;
54683;SDS011;40582;53.100;6.686;2023-01-19T13:33:46;15.63;;;1.73;;
54683;SDS011;40582;53.100;6.686;2023-01-19T13:36:56;15.55;;;2.40;;
54683;SDS011;40582;53.100;6.686;2023-01-19T13:39:06;7.43;;;1.52;;
54683;SDS011;40582;53.100;6.686;2023-01-19T13:41:40;10.75;;;2.13;;
54683;SDS011;40582;53.100;6.686;2023-01-19T13:44:13;12.10;;;2.00;;
54683;SDS011;40582;53.100;6.686;2023-01-19T13:46:46;17.45;;;2.22;;
54683;SDS011;40582;53.100;6.686;2023-01-19T13:49:14;11.88;;;2.38;;
54683;SDS011;40582;53.100;6.686;2023-01-19T13:52:14;20.50;;;2.53;;
54683;SDS011;40582;53.100;6.686;2023-01-19T13:54:48;15.40;;;2.90;;
54683;SDS011;40582;53.100;6.686;2023-01-19T14:02:31;16.65;;;2.53;;
54683;SDS011;40582;53.100;6.686;2023-01-19T14:04:57;13.15;;;1.92;;
54683;SDS011;40582;53.100;6.686;2023-01-19T14:07:23;7.20;;;2.13;;
54683;SDS011;40582;53.100;6.686;2023-01-19T14:10:00;13.88;;;2.10;;
54683;SDS011;40582;53.100;6.686;2023-01-19T14:12:29;12.75;;;2.28;;
54683;SDS011;40582;53.100;6.686;2023-01-19T14:14:56;10.93;;;2.05;;
54683;SDS011;40582;53.100;6.686;2023-01-19T14:17:26;11.82;;;2.10;;
54683;SDS011;40582;53.100;6.686;2023-01-19T14:19:54;13.68;;;2.30;;
54683;SDS011;40582;53.100;6.686;2023-01-19T14:27:49;11.68;;;2.17;;
54683;SDS011;40582;53.100;6.686;2023-01-19T14:30:21;16.27;;;2.30;;
54683;SDS011;40582;53.100;6.686;2023-01-19T14:32:49;18.83;;;2.70;;
54683;SDS011;40582;53.100;6.686;2023-01-19T14:35:23;18.83;;;2.42;;
54683;SDS011;40582;53.100;6.686;2023-01-19T14:37:49;13.38;;;2.17;;
54683;SDS011;40582;53.100;6.686;2023-01-19T14:40:16;10.77;;;2.13;;
54683;SDS011;40582;53.100;6.686;2023-01-19T14:42:47;20.25;;;2.45;;
54683;SDS011;40582;53.100;6.686;2023-01-19T14:45:33;11.80;;;2.35;;
54683;SDS011;40582;53.100;6.686;2023-01-19T14:50:29;18.48;;;2.92;;
54683;SDS011;40582;53.100;6.686;2023-01-19T14:53:11;13.77;;;2.72;;
54683;SDS011;40582;53.100;6.686;2023-01-19T14:55:47;14.30;;;2.42;;
54683;SDS011;40582;53.100;6.686;2023-01-19T14:58:15;8.88;;;2.20;;
54683;SDS011;40582;53.100;6.686;2023-01-19T15:00:42;10.85;;;2.05;;
54683;SDS011;40582;53.100;6.686;2023-01-19T15:03:09;18.73;;;2.30;;
54683;SDS011;40582;53.100;6.686;2023-01-19T15:05:35;11.40;;;2.35;;
54683;SDS011;40582;53.100;6.686;2023-01-19T15:08:02;15.27;;;2.42;;
54683;SDS011;40582;53.100;6.686;2023-01-19T15:10:28;11.25;;;2.17;;
54683;SDS011;40582;53.100;6.686;2023-01-19T15:12:55;13.25;;;2.60;;
54683;SDS011;40582;53.100;6.686;2023-01-19T15:15:23;9.98;;;2.70;;
54683;SDS011;40582;53.100;6.686;2023-01-19T15:17:55;14.43;;;2.00;;
54683;SDS011;40582;53.100;6.686;2023-01-19T15:20:22;9.32;;;1.80;;
54683;SDS011;40582;53.100;6.686;2023-01-19T15:22:48;15.77;;;2.40;;
54683;SDS011;40582;53.100;6.686;2023-01-19T15:25:20;12.65;;;2.03;;
54683;SDS011;40582;53.100;6.686;2023-01-19T15:27:50;6.65;;;1.75;;
54683;SDS011;40582;53.100;6.686;2023-01-19T15:30:20;9.45;;;2.05;;
54683;SDS011;40582;53.100;6.686;2023-01-19T15:32:51;14.63;;;1.95;;
54683;SDS011;40582;53.100;6.686;2023-01-19T15:35:21;7.78;;;2.20;;
54683;SDS011;40582;53.100;6.686;2023-01-19T15:37:48;10.43;;;2.00;;
54683;SDS011;40582;53.100;6.686;2023-01-19T15:40:15;13.20;;;3.28;;
54683;SDS011;40582;53.100;6.686;2023-01-19T15:42:41;11.20;;;3.38;;
54683;SDS011;40582;53.100;6.686;2023-01-19T15:45:28;15.40;;;4.05;;
54683;SDS011;40582;53.100;6.686;2023-01-19T15:48:00;23.60;;;3.50;;
54683;SDS011;40582;53.100;6.686;2023-01-19T15:50:28;13.50;;;3.97;;
54683;SDS011;40582;53.100;6.686;2023-01-19T15:52:54;14.30;;;5.60;;
54683;SDS011;40582;53.100;6.686;2023-01-19T15:55:20;20.27;;;5.97;;
54683;SDS011;40582;53.100;6.686;2023-01-19T15:57:46;19.23;;;5.88;;
54683;SDS011;40582;53.100;6.686;2023-01-19T16:00:12;14.18;;;5.20;;
54683;SDS011;40582;53.100;6.686;2023-01-19T16:02:38;13.00;;;4.93;;
54683;SDS011;40582;53.100;6.686;2023-01-19T16:05:04;20.42;;;6.13;;
54683;SDS011;40582;53.100;6.686;2023-01-19T16:07:34;27.85;;;8.68;;
54683;SDS011;40582;53.100;6.686;2023-01-19T16:10:00;20.80;;;8.38;;
54683;SDS011;40582;53.100;6.686;2023-01-19T16:12:26;20.60;;;8.63;;
54683;SDS011;40582;53.100;6.686;2023-01-19T16:14:52;19.65;;;5.70;;
54683;SDS011;40582;53.100;6.686;2023-01-19T16:17:18;15.95;;;6.07;;